Time;durP1;ratioP1;P1;durP2;ratioP2;P2;SDS_P1;SDS_P2;PMS_P1;PMS_P2;Temp;Humidity;BMP_temperature;BMP_pressure;BME280_temperature;BME280_humidity;BME280_pressure;Samples;Min_cycle;Max_cycle;Signal;HPM_P1;HPM_P2
2022/06/02 00:00:02;;;;;;;1.67;1.58;;;13.00;99.90;;;;;;4677101;30;20488;-88
2022/06/02 00:03:10;;;;;;;5.22;2.28;;;13.10;99.90;;;;;;4649996;30;20076;-80
2022/06/02 00:06:04;;;;;;;2.92;2.72;;;13.10;99.90;;;;;;4665331;30;20059;-87
2022/06/02 00:08:41;;;;;;;1.77;1.67;;;13.20;99.90;;;;;;4664765;30;20069;-86
2022/06/02 00:11:47;;;;;;;2.60;2.40;;;13.20;99.90;;;;;;4666848;30;20062;-85
2022/06/02 00:14:45;;;;;;;2.58;2.20;;;13.20;99.90;;;;;;4666319;30;20058;-86
2022/06/02 00:17:41;;;;;;;2.92;1.95;;;13.20;99.90;;;;;;4666068;30;20051;-85
2022/06/02 00:20:18;;;;;;;2.15;2.03;;;13.20;99.90;;;;;;4665520;30;20068;-86
2022/06/02 00:23:01;;;;;;;2.50;2.30;;;13.10;99.90;;;;;;4637642;30;20047;-86
2022/06/02 00:25:56;;;;;;;2.40;2.17;;;13.00;99.90;;;;;;4650677;30;20065;-86
2022/06/02 00:28:43;;;;;;;2.20;2.00;;;13.00;99.90;;;;;;4637291;30;20450;-86
2022/06/02 00:31:44;;;;;;;2.53;2.10;;;13.00;99.90;;;;;;4651252;30;20526;-86
2022/06/02 00:34:40;;;;;;;3.03;1.83;;;12.90;99.90;;;;;;4650705;30;20050;-86
2022/06/02 00:37:21;;;;;;;4.60;2.15;;;12.90;99.90;;;;;;4664278;30;20514;-86
2022/06/02 00:39:50;;;;;;;2.78;2.58;;;12.80;99.90;;;;;;4650625;30;20066;-86
2022/06/02 00:42:24;;;;;;;2.20;2.00;;;12.80;99.90;;;;;;4665524;30;20054;-82
2022/06/02 00:45:04;;;;;;;2.55;2.35;;;12.80;99.90;;;;;;4665031;30;20054;-91
2022/06/02 00:47:41;;;;;;;2.38;2.10;;;12.80;99.90;;;;;;4659068;30;20058;-87
2022/06/02 00:50:32;;;;;;;2.75;2.55;;;12.70;99.90;;;;;;4684564;30;20061;-88
2022/06/02 00:53:16;;;;;;;3.28;2.97;;;12.60;99.90;;;;;;4684547;30;20060;-88
2022/06/02 00:59:40;;;;;;;2.60;2.40;;;12.60;99.90;;;;;;4668657;30;20053;-89
2022/06/02 01:02:08;;;;;;;2.03;1.55;;;12.60;99.90;;;;;;4674397;30;20048;-87
2022/06/02 01:04:41;;;;;;;3.55;2.40;;;12.60;99.90;;;;;;4698986;30;20061;-89
2022/06/02 01:07:45;;;;;;;2.10;2.00;;;12.60;99.90;;;;;;4698629;30;20414;-89
2022/06/02 01:10:14;;;;;;;2.40;2.17;;;12.60;99.90;;;;;;4664965;30;20530;-88
2022/06/02 01:12:51;;;;;;;2.20;2.00;;;12.50;99.90;;;;;;4683941;30;20054;-88
2022/06/02 01:15:30;;;;;;;2.20;2.10;;;12.50;99.90;;;;;;4684856;30;20064;-87
2022/06/02 01:18:15;;;;;;;2.40;1.80;;;12.50;99.90;;;;;;4697769;30;20057;-88
2022/06/02 01:20:57;;;;;;;2.08;1.98;;;12.40;99.90;;;;;;4684423;30;20065;-88
2022/06/02 01:23:43;;;;;;;2.00;1.75;;;12.20;99.90;;;;;;4684734;30;20057;-88
2022/06/02 01:26:11;;;;;;;1.92;1.83;;;12.10;99.90;;;;;;4684175;30;20052;-87
2022/06/02 01:29:03;;;;;;;1.77;1.67;;;12.10;99.90;;;;;;4654329;30;20533;-87
2022/06/02 01:31:48;;;;;;;7.85;1.70;;;12.10;99.90;;;;;;4669410;30;20064;-88
2022/06/02 01:34:37;;;;;;;2.42;1.63;;;12.20;99.90;;;;;;4655468;30;20054;-88
2022/06/02 01:37:26;;;;;;;1.95;1.85;;;12.10;99.90;;;;;;4683931;30;20058;-86
2022/06/02 01:40:18;;;;;;;2.22;1.60;;;12.20;99.90;;;;;;4698364;30;20053;-85
2022/06/02 01:43:15;;;;;;;2.45;1.40;;;12.20;99.90;;;;;;4698231;30;20053;-88
2022/06/02 01:46:09;;;;;;;2.80;1.25;;;12.20;99.90;;;;;;4670215;30;20049;-88
2022/06/02 01:49:02;;;;;;;2.38;2.17;;;12.30;99.90;;;;;;4698430;30;20061;-89
2022/06/02 01:52:02;;;;;;;3.22;2.45;;;12.30;99.90;;;;;;4669933;30;20053;-88
2022/06/02 01:54:58;;;;;;;1.48;1.38;;;12.30;99.90;;;;;;4698268;30;20383;-87
2022/06/02 01:57:29;;;;;;;2.65;2.25;;;12.30;99.90;;;;;;4661219;30;20064;-89
2022/06/02 01:59:57;;;;;;;6.75;1.70;;;12.40;99.90;;;;;;4682041;30;20054;-89
2022/06/02 02:02:46;;;;;;;1.40;1.30;;;12.40;99.90;;;;;;4680647;30;20783;-89
2022/06/02 02:05:22;;;;;;;2.50;2.30;;;12.40;99.90;;;;;;4652123;30;20071;-86
2022/06/02 02:07:59;;;;;;;1.45;1.35;;;12.50;99.90;;;;;;4680897;30;20062;-90
2022/06/02 02:11:03;;;;;;;3.25;1.80;;;12.50;99.90;;;;;;4671592;30;20053;-88
2022/06/02 02:13:40;;;;;;;1.77;1.67;;;12.50;99.90;;;;;;4682494;30;20053;-89
2022/06/02 02:16:39;;;;;;;1.85;1.30;;;12.50;99.90;;;;;;4666685;30;20396;-88
2022/06/02 02:19:49;;;;;;;1.45;1.35;;;12.50;99.90;;;;;;4665225;30;20050;-88
2022/06/02 02:22:35;;;;;;;2.88;1.75;;;12.60;99.90;;;;;;4666489;30;20061;-90
2022/06/02 02:25:28;;;;;;;1.85;1.75;;;12.60;99.90;;;;;;4680701;30;20042;-89
2022/06/02 02:28:02;;;;;;;1.70;1.60;;;12.60;99.90;;;;;;4672658;30;20405;-80
2022/06/02 02:30:45;;;;;;;2.27;2.07;;;12.50;99.90;;;;;;4698606;30;20050;-80
2022/06/02 02:33:37;;;;;;;1.77;1.67;;;12.50;99.90;;;;;;4697305;30;20052;-82
2022/06/02 02:36:36;;;;;;;2.60;2.38;;;12.50;99.90;;;;;;4698891;30;20098;-83
2022/06/02 02:45:28;;;;;;;3.97;2.67;;;12.40;99.90;;;;;;4668985;30;20062;-83
2022/06/02 02:50:39;;;;;;;2.03;1.92;;;12.40;99.90;;;;;;4663542;30;20057;-83
2022/06/02 02:55:36;;;;;;;1.70;1.60;;;12.40;99.90;;;;;;4696914;30;20049;-83
2022/06/02 03:04:25;;;;;;;3.10;1.40;;;12.30;99.90;;;;;;4681344;30;20395;-83
2022/06/02 03:08:34;;;;;;;3.08;2.10;;;12.10;99.90;;;;;;4696279;30;20058;-83
2022/06/02 03:13:17;;;;;;;2.65;2.00;;;12.10;99.90;;;;;;4686627;30;20069;-83
2022/06/02 03:18:17;;;;;;;1.55;1.45;;;12.00;99.90;;;;;;4693988;30;20052;-83
2022/06/02 03:23:10;;;;;;;;;;;;;;;;;;;;;
2022/06/02 03:27:11;;;;;;;1.63;1.52;;;11.90;99.90;;;;;;4696667;30;20045;-83
2022/06/02 03:31:59;;;;;;;3.13;2.03;;;11.80;99.90;;;;;;4681612;30;20045;-83
2022/06/02 03:36:58;;;;;;;4.82;1.80;;;11.80;99.90;;;;;;4686026;30;20530;-84
2022/06/02 03:50:44;;;;;;;1.63;1.52;;;11.70;99.90;;;;;;4666781;30;20540;-83
2022/06/02 03:53:59;;;;;;;1.92;1.73;;;11.70;99.90;;;;;;4665430;30;20061;-84
2022/06/02 03:56:52;;;;;;;1.80;1.67;;;11.70;99.90;;;;;;4665692;30;20858;-83
2022/06/02 04:00:35;;;;;;;3.47;1.70;;;11.70;99.90;;;;;;4638332;30;20058;-83
2022/06/02 04:05:14;;;;;;;2.08;1.98;;;11.80;99.90;;;;;;4671835;30;20050;-84
2022/06/02 04:09:51;;;;;;;1.42;1.33;;;12.00;99.90;;;;;;4665509;30;20050;-84
2022/06/02 04:14:53;;;;;;;3.00;1.70;;;11.90;99.90;;;;;;4664719;30;20073;-84
2022/06/02 04:22:31;;;;;;;3.47;2.17;;;12.10;99.90;;;;;;4664790;30;20053;-84
2022/06/02 04:25:17;;;;;;;2.20;2.00;;;12.10;99.90;;;;;;4650579;30;20058;-83
2022/06/02 04:33:13;;;;;;;2.88;1.98;;;12.20;99.90;;;;;;4665086;30;20050;-81
2022/06/02 04:36:16;;;;;;;2.53;2.15;;;12.20;99.90;;;;;;4674044;30;20408;-82
2022/06/02 04:39:04;;;;;;;2.80;2.53;;;12.20;99.90;;;;;;4660864;30;20057;-81
2022/06/02 04:51:19;;;;;;;1.45;1.35;;;12.20;99.90;;;;;;4668197;30;20054;-86
2022/06/02 04:56:34;;;;;;;2.67;2.35;;;12.60;99.90;;;;;;4797024;24;20061;-86
2022/06/02 05:00:03;;;;;;;4.22;2.63;;;13.10;99.90;;;;;;4629885;30;20047;-88
2022/06/02 05:02:37;;;;;;;1.50;1.40;;;13.50;99.90;;;;;;4646152;30;20512;-82
2022/06/02 05:09:14;;;;;;;3.42;2.45;;;14.00;99.90;;;;;;4676982;30;20066;-83
2022/06/02 05:12:20;;;;;;;16.50;2.38;;;14.50;99.90;;;;;;4672068;30;20064;-88
2022/06/02 05:15:37;;;;;;;1.33;1.23;;;14.90;99.90;;;;;;4679655;30;20502;-86
2022/06/02 05:19:11;;;;;;;1.63;1.52;;;15.10;99.90;;;;;;4698286;30;20056;-85
2022/06/02 05:22:05;;;;;;;4.72;1.75;;;15.30;99.90;;;;;;4697568;30;20494;-84
2022/06/02 05:24:36;;;;;;;4.38;1.85;;;15.30;99.90;;;;;;4690556;30;20066;-84
2022/06/02 05:58:47;;;;;;;1.92;1.67;;;14.80;99.90;;;;;;4633943;30;20057;-87
2022/06/02 07:21:35;;;;;;;3.83;1.57;;;16.70;99.90;;;;;;4978792;24;20102;-88
2022/06/02 07:26:10;;;;;;;;;;;;;;;;;;;;;
2022/06/02 07:42:31;;;;;;;;;;;;;;;;;;;;;
2022/06/02 07:51:06;;;;;;;3.20;2.67;;;17.80;99.90;;;;;;4688404;30;20506;-87
2022/06/02 08:08:14;;;;;;;7.70;2.50;;;18.00;99.90;;;;;;4751565;24;20518;-89
2022/06/02 08:11:41;;;;;;;2.25;2.15;;;18.30;99.90;;;;;;4701489;30;20502;-88
2022/06/02 08:16:34;;;;;;;1.95;1.85;;;18.50;99.90;;;;;;4714458;30;20061;-86
2022/06/02 08:20:22;;;;;;;2.03;1.92;;;18.50;99.90;;;;;;4715036;30;20573;-88
2022/06/02 08:23:39;;;;;;;2.50;2.30;;;18.60;99.90;;;;;;4671388;30;20071;-87
2022/06/02 08:27:23;;;;;;;3.17;2.83;;;18.50;99.90;;;;;;4689736;30;20570;-86
2022/06/02 08:30:25;;;;;;;2.33;2.13;;;18.70;99.90;;;;;;4696667;30;20585;-87
2022/06/02 08:34:12;;;;;;;2.08;1.98;;;18.70;99.90;;;;;;4696665;30;20053;-86
2022/06/02 08:37:41;;;;;;;16.48;4.00;;;18.90;99.90;;;;;;4696920;30;20042;-88
2022/06/02 08:45:05;;;;;;;3.17;2.13;;;18.80;99.90;;;;;;4663162;30;20070;-86
2022/06/02 08:48:14;;;;;;;9.93;2.72;;;18.60;99.90;;;;;;4652025;30;20528;-89
2022/06/02 08:51:41;;;;;;;3.65;2.47;;;18.20;99.90;;;;;;4662120;30;20178;-86
2022/06/02 08:54:54;;;;;;;1.80;1.70;;;18.10;99.90;;;;;;4671684;30;20057;-86
2022/06/02 08:58:52;;;;;;;29.23;6.45;;;18.40;99.90;;;;;;4648929;30;20134;-87
2022/06/02 09:01:39;;;;;;;5.97;2.20;;;18.20;99.90;;;;;;4699052;30;20113;-87
2022/06/02 09:05:07;;;;;;;2.33;2.13;;;18.00;99.90;;;;;;4699123;30;20068;-88
2022/06/02 09:08:30;;;;;;;3.85;2.20;;;17.90;99.90;;;;;;4671492;30;20054;-87
2022/06/02 09:16:18;;;;;;;2.28;2.08;;;17.90;99.90;;;;;;4645262;30;20070;-85
2022/06/02 09:19:53;;;;;;;2.30;2.15;;;18.20;99.90;;;;;;4644184;30;20061;-86
2022/06/02 09:23:03;;;;;;;4.43;1.92;;;18.20;99.90;;;;;;4644671;30;20051;-85
2022/06/02 09:26:12;;;;;;;2.20;2.03;;;18.20;99.90;;;;;;4665341;30;20245;-85
2022/06/02 09:28:55;;;;;;;3.75;2.35;;;18.10;99.90;;;;;;4653824;30;20058;-86
2022/06/02 09:32:14;;;;;;;1.98;1.77;;;18.20;99.90;;;;;;4662241;30;20055;-86
2022/06/02 09:35:16;;;;;;;2.45;2.25;;;18.20;99.90;;;;;;4682484;30;20497;-86
2022/06/02 09:37:44;;;;;;;3.92;2.10;;;18.40;99.90;;;;;;4698040;30;20403;-86
2022/06/02 09:40:27;;;;;;;5.82;1.83;;;18.50;99.90;;;;;;4698609;30;20046;-85
2022/06/02 09:43:25;;;;;;;2.47;1.75;;;18.60;99.90;;;;;;4681702;30;20392;-85
2022/06/02 09:50:57;;;;;;;2.45;2.00;;;18.50;99.90;;;;;;4690423;30;20415;-83
2022/06/02 09:58:53;;;;;;;2.30;2.13;;;18.60;99.90;;;;;;4679944;30;20850;-86
2022/06/02 10:01:29;;;;;;;3.40;2.80;;;18.90;99.90;;;;;;4681000;30;20050;-85
2022/06/02 10:04:22;;;;;;;1.90;1.80;;;18.90;99.90;;;;;;4702207;30;20064;-85
2022/06/02 10:07:23;;;;;;;2.85;1.88;;;19.00;99.90;;;;;;4714659;30;20065;-84
2022/06/02 10:10:25;;;;;;;2.80;2.60;;;19.30;99.90;;;;;;4716052;30;20449;-85
2022/06/02 10:13:55;;;;;;;2.95;2.60;;;19.30;99.90;;;;;;4732470;30;20075;-86
2022/06/02 10:17:09;;;;;;;3.95;2.35;;;19.20;99.90;;;;;;4715439;30;20406;-85
2022/06/02 10:20:13;;;;;;;2.03;1.92;;;19.40;99.90;;;;;;4715582;30;20076;-87
2022/06/02 10:22:53;;;;;;;1.75;1.65;;;19.40;99.90;;;;;;4722987;30;20049;-85
2022/06/02 10:26:23;;;;;;;2.95;2.08;;;19.40;99.90;;;;;;4714341;30;20056;-83
2022/06/02 10:30:33;;;;;;;2.00;1.63;;;19.50;99.90;;;;;;4692432;30;20085;-86
2022/06/02 10:34:10;;;;;;;1.85;1.73;;;19.60;99.90;;;;;;4699101;30;20068;-87
2022/06/02 10:37:05;;;;;;;3.45;3.13;;;19.50;99.90;;;;;;4696115;30;20415;-89
2022/06/02 10:39:43;;;;;;;2.35;2.15;;;19.60;99.90;;;;;;4664371;30;20827;-87
2022/06/02 10:42:34;;;;;;;2.35;2.15;;;19.70;99.90;;;;;;4682327;30;20061;-87
2022/06/02 10:45:36;;;;;;;2.58;2.38;;;19.90;99.90;;;;;;4685284;30;20426;-90
2022/06/02 10:48:46;;;;;;;6.47;1.98;;;19.90;99.90;;;;;;4688967;30;20068;-90
2022/06/02 10:51:20;;;;;;;2.45;2.25;;;19.90;99.90;;;;;;4672320;30;20525;-89
2022/06/02 10:54:21;;;;;;;7.32;2.60;;;20.00;99.90;;;;;;4686991;30;20436;-85
2022/06/02 10:57:26;;;;;;;3.00;2.15;;;20.00;99.90;;;;;;4717077;30;20057;-87
2022/06/02 11:00:38;;;;;;;3.15;2.92;;;19.90;99.90;;;;;;4697343;30;20468;-86
2022/06/02 11:03:31;;;;;;;4.55;1.73;;;19.70;99.90;;;;;;4671152;30;20446;-86
2022/06/02 11:06:17;;;;;;;3.08;1.70;;;19.50;99.90;;;;;;4708262;30;20075;-87
2022/06/02 11:09:22;;;;;;;2.60;2.50;;;19.40;99.90;;;;;;4703266;30;20064;-84
2022/06/02 11:12:21;;;;;;;4.60;2.70;;;19.40;99.90;;;;;;4703829;30;20418;-85
2022/06/02 11:15:10;;;;;;;2.58;1.95;;;19.40;99.90;;;;;;4718125;30;20045;-86
2022/06/02 11:17:53;;;;;;;2.80;1.73;;;19.60;99.90;;;;;;4688863;30;20418;-86
2022/06/02 11:20:47;;;;;;;2.67;2.47;;;19.90;99.90;;;;;;4719154;30;20064;-85
2022/06/02 11:24:11;;;;;;;2.67;2.47;;;20.10;99.90;;;;;;4704065;30;20068;-85
2022/06/02 11:27:00;;;;;;;2.00;1.63;;;20.40;99.90;;;;;;4704941;30;20044;-86
2022/06/02 11:29:43;;;;;;;1.92;1.83;;;20.20;99.90;;;;;;4720459;30;20048;-86
2022/06/02 11:32:35;;;;;;;4.32;2.22;;;20.20;99.90;;;;;;4722462;30;20407;-86
2022/06/02 11:35:22;;;;;;;2.28;2.13;;;20.50;99.90;;;;;;4716503;30;20653;-87
2022/06/02 11:38:27;;;;;;;2.05;1.88;;;20.60;99.90;;;;;;4717325;30;20857;-85
2022/06/02 11:41:13;;;;;;;5.25;1.58;;;20.50;99.90;;;;;;4702708;30;20066;-85
2022/06/02 11:43:57;;;;;;;2.25;2.00;;;20.40;99.90;;;;;;4718860;30;20061;-83
2022/06/02 11:46:46;;;;;;;2.22;1.40;;;20.10;99.90;;;;;;4730024;30;20049;-87
2022/06/02 11:49:39;;;;;;;8.40;2.58;;;19.80;99.90;;;;;;4700596;30;20050;-85
2022/06/02 11:52:13;;;;;;;1.65;1.55;;;19.60;99.90;;;;;;4700110;30;20058;-89
2022/06/02 11:55:11;;;;;;;2.53;2.33;;;19.60;99.90;;;;;;4700905;30;20128;-89
2022/06/02 11:57:49;;;;;;;2.72;2.50;;;19.70;99.90;;;;;;4715764;30;20064;-87
2022/06/02 12:04:41;;;;;;;1.92;1.83;;;20.20;99.90;;;;;;4671280;30;20068;-89
2022/06/02 12:07:42;;;;;;;2.55;1.77;;;20.50;99.90;;;;;;4702162;30;20061;-85
2022/06/02 12:10:49;;;;;;;3.05;2.00;;;20.60;99.90;;;;;;4685810;30;20138;-87
2022/06/02 12:14:16;;;;;;;5.55;2.70;;;20.70;99.90;;;;;;4709124;30;20053;-88
2022/06/02 12:16:49;;;;;;;1.92;1.80;;;20.70;99.90;;;;;;4691212;30;20136;-86
2022/06/02 12:19:51;;;;;;;1.92;1.63;;;20.80;99.90;;;;;;4717073;30;20060;-87
2022/06/02 12:23:05;;;;;;;1.60;1.50;;;21.00;99.90;;;;;;4701633;30;20528;-87
2022/06/02 12:25:39;;;;;;;1.52;1.42;;;21.10;99.90;;;;;;4707609;30;20057;-80
2022/06/02 12:28:40;;;;;;;3.05;2.05;;;20.90;99.90;;;;;;4717309;30;20045;-79
2022/06/02 12:31:35;;;;;;;2.25;1.65;;;20.70;99.90;;;;;;4684225;30;20054;-80
2022/06/02 12:34:40;;;;;;;9.18;2.05;;;20.50;99.90;;;;;;4702522;30;20053;-79
2022/06/02 12:37:23;;;;;;;3.05;2.38;;;20.20;99.90;;;;;;4699758;30;20061;-82
2022/06/02 12:40:19;;;;;;;2.03;1.83;;;20.00;99.90;;;;;;4727592;30;20056;-81
2022/06/02 12:42:52;;;;;;;1.50;1.40;;;19.80;99.90;;;;;;4732917;30;20449;-82
2022/06/02 12:45:35;;;;;;;2.22;1.95;;;19.70;99.90;;;;;;4724791;30;20045;-82
2022/06/02 12:48:51;;;;;;;2.45;2.10;;;19.60;99.90;;;;;;4711904;30;20049;-80
2022/06/02 12:51:49;;;;;;;2.50;1.93;;;19.50;99.90;;;;;;4662267;30;20066;-80
2022/06/02 12:54:59;;;;;;;3.17;2.67;;;19.50;99.90;;;;;;4714812;30;20048;-80
2022/06/02 12:57:55;;;;;;;2.13;2.03;;;19.50;99.90;;;;;;4693175;30;20680;-79
2022/06/02 13:00:52;;;;;;;3.97;2.00;;;19.50;99.90;;;;;;4707484;30;20061;-79
2022/06/02 13:03:48;;;;;;;2.47;2.28;;;19.70;99.90;;;;;;4691682;30;20053;-82
2022/06/02 13:07:03;;;;;;;2.33;2.10;;;19.70;99.90;;;;;;4686812;30;20093;-82
2022/06/02 13:09:53;;;;;;;2.22;2.03;;;19.90;99.90;;;;;;4687546;30;20053;-81
2022/06/02 13:12:42;;;;;;;3.85;2.40;;;19.90;99.90;;;;;;4687243;30;20045;-80
2022/06/02 13:15:45;;;;;;;3.25;2.13;;;19.90;99.90;;;;;;4701520;30;20045;-81
2022/06/02 13:18:45;;;;;;;3.45;2.08;;;19.80;99.90;;;;;;4665267;30;20046;-81
2022/06/02 13:21:43;;;;;;;1.90;1.80;;;19.70;99.90;;;;;;4683321;30;20060;-81
2022/06/02 13:24:32;;;;;;;3.65;2.15;;;19.60;99.90;;;;;;4689798;30;20068;-82
2022/06/02 13:27:21;;;;;;;2.13;1.98;;;19.70;99.90;;;;;;4694936;30;20066;-83
2022/06/02 13:30:10;;;;;;;1.92;1.83;;;19.70;99.90;;;;;;4695007;30;20526;-82
2022/06/02 13:32:41;;;;;;;2.35;2.15;;;19.70;99.90;;;;;;4690469;30;20046;-85
2022/06/02 13:35:44;;;;;;;2.75;2.10;;;19.60;99.90;;;;;;4691888;30;20797;-85
2022/06/02 13:38:33;;;;;;;2.38;2.17;;;19.50;99.90;;;;;;4696698;30;20058;-85
2022/06/02 13:41:25;;;;;;;11.10;2.42;;;19.50;99.90;;;;;;4689270;30;20053;-84
2022/06/02 13:44:31;;;;;;;3.47;2.08;;;19.60;99.90;;;;;;4704126;30;20062;-84
2022/06/02 13:47:36;;;;;;;2.42;2.22;;;19.80;99.90;;;;;;4701594;30;20053;-85
2022/06/02 13:50:27;;;;;;;3.90;2.40;;;20.00;99.90;;;;;;4689989;30;20045;-83
2022/06/02 13:53:05;;;;;;;2.85;1.92;;;20.10;99.90;;;;;;4697758;30;20054;-84
2022/06/02 13:58:33;;;;;;;2.25;2.05;;;20.40;99.90;;;;;;4683213;30;20057;-86
2022/06/02 14:01:45;;;;;;;2.25;1.80;;;20.50;99.90;;;;;;4707863;30;20060;-85
2022/06/02 14:04:53;;;;;;;2.87;2.47;;;20.80;99.90;;;;;;4696712;30;20065;-83
2022/06/02 14:07:50;;;;;;;2.88;2.47;;;20.90;99.90;;;;;;4703169;30;20053;-84
2022/06/02 14:10:28;;;;;;;2.70;1.98;;;21.10;99.90;;;;;;4696878;30;20064;-86
2022/06/02 14:13:22;;;;;;;8.68;2.30;;;21.10;99.90;;;;;;4696372;30;20045;-85
2022/06/02 14:16:16;;;;;;;2.38;2.28;;;21.10;99.90;;;;;;4691140;30;20057;-85
2022/06/02 14:19:04;;;;;;;2.03;1.90;;;21.10;99.90;;;;;;4669816;30;20065;-85
2022/06/02 14:22:04;;;;;;;2.08;1.98;;;21.10;99.90;;;;;;4687062;30;20065;-83
2022/06/02 14:25:16;;;;;;;8.07;2.70;;;21.10;99.90;;;;;;4686236;30;20060;-85
2022/06/02 14:28:26;;;;;;;1.73;1.63;;;21.30;99.90;;;;;;4692401;30;20061;-84
2022/06/02 14:39:36;;;;;;;1.92;1.83;;;21.50;99.90;;;;;;4681060;30;20502;-83
2022/06/02 14:46:09;;;;;;;4.00;2.33;;;21.70;99.90;;;;;;4678916;30;20069;-84
2022/06/02 14:48:54;;;;;;;4.43;1.80;;;21.80;99.90;;;;;;4689551;30;20069;-83
2022/06/02 14:51:30;;;;;;;5.13;2.53;;;21.80;99.90;;;;;;4697770;30;20053;-82
2022/06/02 14:54:31;;;;;;;2.08;1.98;;;21.70;99.90;;;;;;4677847;30;20667;-84
2022/06/02 14:57:45;;;;;;;2.42;2.22;;;21.70;99.90;;;;;;4678940;30;20054;-83
2022/06/02 15:00:17;;;;;;;3.03;2.72;;;21.70;99.90;;;;;;4688126;30;20058;-83
2022/06/02 15:03:09;;;;;;;2.65;2.45;;;21.70;99.90;;;;;;4693278;30;20049;-83
2022/06/02 15:05:53;;;;;;;2.72;2.53;;;21.70;99.90;;;;;;4691051;30;20050;-87
2022/06/02 15:08:42;;;;;;;2.97;2.53;;;21.70;99.90;;;;;;4693523;30;20085;-82
2022/06/02 15:11:19;;;;;;;4.60;2.22;;;21.70;99.90;;;;;;4681312;30;20407;-85
2022/06/02 15:14:07;;;;;;;6.00;3.05;;;21.70;99.90;;;;;;4684275;30;20530;-80
2022/06/02 15:16:46;;;;;;;3.63;2.30;;;21.80;99.90;;;;;;4681955;30;20069;-81
2022/06/02 15:20:40;;;;;;;3.75;2.15;;;21.60;99.90;;;;;;4675723;30;20073;-84
2022/06/02 15:24:11;;;;;;;1.67;1.58;;;21.50;99.90;;;;;;4668396;30;20058;-82
2022/06/02 15:27:10;;;;;;;5.75;2.00;;;21.30;99.90;;;;;;4675385;30;20058;-82
2022/06/02 15:42:17;;;;;;;2.17;2.08;;;20.60;99.90;;;;;;4677959;30;20038;-81
2022/06/02 15:45:04;;;;;;;3.38;2.63;;;20.60;99.90;;;;;;4678734;30;20061;-82
2022/06/02 15:47:54;;;;;;;3.25;2.60;;;20.60;99.90;;;;;;4679135;30;20061;-81
2022/06/02 15:50:40;;;;;;;2.35;2.15;;;20.60;99.90;;;;;;4678354;30;20104;-81
2022/06/02 15:53:20;;;;;;;2.85;2.65;;;20.60;99.90;;;;;;4678801;30;20061;-81
2022/06/02 15:56:27;;;;;;;3.27;2.50;;;20.70;99.90;;;;;;4690675;30;20107;-82
2022/06/02 15:59:28;;;;;;;3.97;2.67;;;20.80;99.90;;;;;;4676793;30;20057;-81
2022/06/02 16:06:37;;;;;;;2.13;2.00;;;21.40;99.90;;;;;;4678805;30;20046;-82
2022/06/02 16:18:35;;;;;;;1.88;1.77;;;21.10;99.90;;;;;;4694674;30;20497;-82
2022/06/02 16:21:47;;;;;;;4.78;3.33;;;20.80;99.90;;;;;;4678136;30;20050;-81
2022/06/02 16:24:37;;;;;;;2.53;2.33;;;20.90;99.90;;;;;;4678619;30;20058;-81
2022/06/02 16:27:25;;;;;;;4.28;2.78;;;21.00;99.90;;;;;;4674931;30;20062;-80
2022/06/02 16:30:15;;;;;;;17.83;5.70;;;21.20;99.90;;;;;;4677783;30;20767;-81
2022/06/02 16:41:11;;;;;;;3.17;2.85;;;21.30;99.90;;;;;;4662263;30;20119;-81
2022/06/02 16:44:21;;;;;;;2.95;2.25;;;21.30;99.90;;;;;;4673281;30;20061;-81
2022/06/02 16:47:07;;;;;;;2.28;2.10;;;21.10;99.90;;;;;;4686999;30;20050;-81
2022/06/02 16:49:43;;;;;;;4.72;1.85;;;21.10;99.90;;;;;;4694672;30;20419;-81
2022/06/02 16:52:59;;;;;;;3.30;2.17;;;21.10;99.90;;;;;;4695024;30;20057;-82
2022/06/02 16:55:33;;;;;;;6.43;2.53;;;21.00;99.90;;;;;;4701514;30;20139;-81
2022/06/02 16:58:20;;;;;;;4.70;2.75;;;20.90;99.90;;;;;;4697379;30;20135;-81
2022/06/02 17:01:16;;;;;;;9.98;3.65;;;20.90;99.90;;;;;;4694489;30;20069;-83
2022/06/02 17:04:13;;;;;;;4.80;2.58;;;20.90;99.90;;;;;;4695065;30;20764;-84
2022/06/02 17:06:57;;;;;;;2.13;2.00;;;20.90;99.90;;;;;;4707868;30;20061;-84
2022/06/02 17:09:49;;;;;;;2.85;1.90;;;20.90;99.90;;;;;;4711444;30;20060;-84
2022/06/02 17:12:26;;;;;;;2.20;2.00;;;20.90;99.90;;;;;;4711930;30;20140;-82
2022/06/02 17:15:16;;;;;;;3.60;2.55;;;20.80;99.90;;;;;;4700302;30;20053;-83
2022/06/02 17:17:53;;;;;;;10.40;4.90;;;20.80;99.90;;;;;;4693953;30;20065;-83
2022/06/02 17:20:58;;;;;;;3.97;2.42;;;20.70;99.90;;;;;;4695190;30;20053;-83
2022/06/02 17:23:32;;;;;;;3.33;2.35;;;20.60;99.90;;;;;;4692085;30;20061;-83
2022/06/02 17:26:12;;;;;;;2.80;2.42;;;20.60;99.90;;;;;;4689548;30;20506;-83
2022/06/02 17:29:02;;;;;;;18.65;8.77;;;20.50;99.90;;;;;;4691756;30;20709;-83
2022/06/02 17:32:03;;;;;;;3.70;2.90;;;20.50;99.90;;;;;;4694298;30;20073;-84
2022/06/02 17:35:01;;;;;;;2.63;2.42;;;20.40;99.90;;;;;;4693791;30;20053;-82
2022/06/02 17:37:51;;;;;;;2.83;2.63;;;20.30;99.90;;;;;;4703659;30;20068;-83
2022/06/02 17:40:44;;;;;;;2.38;2.17;;;20.30;99.90;;;;;;4711252;30;20660;-84
2022/06/02 17:43:52;;;;;;;2.58;2.38;;;20.30;99.90;;;;;;4709677;30;20060;-84
2022/06/02 17:46:54;;;;;;;2.72;2.53;;;20.30;99.90;;;;;;4711868;30;20135;-81
2022/06/02 17:49:47;;;;;;;2.38;2.17;;;20.20;99.90;;;;;;4674531;30;20349;-83
2022/06/02 17:52:29;;;;;;;1.77;1.67;;;20.20;99.90;;;;;;4694712;30;20075;-82
2022/06/02 17:55:10;;;;;;;5.72;2.40;;;20.10;99.90;;;;;;4694276;30;20060;-82
2022/06/02 17:57:56;;;;;;;4.35;2.92;;;20.10;99.90;;;;;;4703596;30;20057;-86
2022/06/02 18:00:54;;;;;;;2.92;2.72;;;20.00;99.90;;;;;;4694569;30;20068;-82
2022/06/02 18:03:25;;;;;;;14.23;3.40;;;19.90;99.90;;;;;;4691782;30;20371;-82
2022/06/02 18:06:20;;;;;;;16.30;2.72;;;19.80;99.90;;;;;;4693470;30;20064;-82
2022/06/02 18:09:32;;;;;;;2.22;2.00;;;19.70;99.90;;;;;;4693748;30;20512;-82
2022/06/02 18:12:19;;;;;;;4.18;2.22;;;19.60;99.90;;;;;;4678509;30;20066;-81
2022/06/02 18:15:20;;;;;;;2.40;2.20;;;19.50;99.90;;;;;;4693894;30;20064;-82
2022/06/02 18:18:16;;;;;;;3.25;2.90;;;19.50;99.90;;;;;;4693929;30;20541;-82
2022/06/02 18:20:46;;;;;;;2.35;2.20;;;19.40;99.90;;;;;;4693688;30;20062;-82
2022/06/02 18:23:20;;;;;;;2.42;2.22;;;19.30;99.90;;;;;;4692984;30;20068;-83
2022/06/02 18:26:14;;;;;;;2.40;2.25;;;19.20;99.90;;;;;;4693725;30;20053;-83
2022/06/02 18:28:54;;;;;;;2.72;2.53;;;19.10;99.90;;;;;;4693321;30;20065;-82
2022/06/02 18:31:55;;;;;;;4.40;3.13;;;19.10;99.90;;;;;;4694422;30;20053;-82
2022/06/02 18:34:26;;;;;;;2.30;2.10;;;19.00;99.90;;;;;;4693605;30;20061;-82
2022/06/02 18:37:12;;;;;;;2.97;2.67;;;18.90;99.90;;;;;;4693505;30;20049;-83
2022/06/02 18:39:52;;;;;;;3.42;2.67;;;18.80;99.90;;;;;;4694118;30;20061;-82
2022/06/02 18:42:44;;;;;;;10.43;2.65;;;18.80;99.90;;;;;;4693606;30;20402;-82
2022/06/02 18:45:36;;;;;;;2.60;2.40;;;18.70;99.90;;;;;;4693722;30;20049;-82
2022/06/02 18:48:09;;;;;;;;;;;18.60;99.90;;;;;;4694662;30;20045;-83
2022/06/02 18:51:03;;;;;;;2.30;2.10;;;18.50;99.90;;;;;;4693494;30;19935;-83
2022/06/02 18:53:43;;;;;;;2.67;2.47;;;18.40;99.90;;;;;;4674177;30;20057;-82
2022/06/02 18:56:39;;;;;;;4.28;2.72;;;18.40;99.90;;;;;;4686958;30;20071;-81
2022/06/02 18:59:33;;;;;;;2.38;2.17;;;18.40;99.90;;;;;;4683880;30;20080;-82
2022/06/02 19:02:42;;;;;;;2.78;2.58;;;18.30;99.90;;;;;;4684397;30;20053;-84
2022/06/02 19:05:41;;;;;;;3.60;3.30;;;18.10;99.90;;;;;;4682567;30;20507;-84
2022/06/02 19:15:49;;;;;;;2.22;2.05;;;17.70;99.90;;;;;;4677571;30;20089;-82
2022/06/02 19:18:26;;;;;;;2.75;2.53;;;17.70;99.90;;;;;;4679712;30;20604;-82
2022/06/02 19:21:16;;;;;;;3.58;2.65;;;17.70;99.90;;;;;;4689170;30;20054;-81
2022/06/02 19:23:46;;;;;;;2.53;2.38;;;17.60;99.90;;;;;;4692917;30;20058;-81
2022/06/02 19:26:29;;;;;;;;;;;17.60;99.90;;;;;;4696511;30;20050;-82
2022/06/02 19:29:20;;;;;;;4.55;2.30;;;17.60;99.90;;;;;;4707178;30;19930;-81
2022/06/02 19:32:14;;;;;;;11.07;3.72;;;17.40;99.90;;;;;;4714557;30;20064;-82
2022/06/02 19:35:04;;;;;;;5.40;2.88;;;17.30;99.90;;;;;;4712997;30;20387;-82
2022/06/02 19:37:36;;;;;;;3.42;3.13;;;17.30;99.90;;;;;;4699970;30;20065;-82
2022/06/02 19:40:52;;;;;;;3.30;3.00;;;17.30;99.90;;;;;;4696528;30;20810;-81
2022/06/02 19:43:34;;;;;;;3.28;3.03;;;17.20;99.90;;;;;;4647221;30;20055;-81
2022/06/02 19:46:29;;;;;;;3.08;2.72;;;17.20;99.90;;;;;;4696217;30;20053;-81
2022/06/02 19:49:25;;;;;;;3.08;2.88;;;17.20;99.90;;;;;;4697862;30;20054;-82
2022/06/02 19:52:00;;;;;;;4.32;4.03;;;17.30;99.90;;;;;;4696366;30;20057;-82
2022/06/02 19:54:46;;;;;;;3.25;2.97;;;17.20;99.90;;;;;;4698734;30;20068;-82
2022/06/02 19:57:41;;;;;;;4.78;2.65;;;17.30;99.90;;;;;;4705382;30;20061;-82
2022/06/02 20:00:27;;;;;;;11.90;3.65;;;17.30;99.90;;;;;;4690064;30;20053;-82
2022/06/02 20:03:11;;;;;;;3.65;2.65;;;17.20;99.90;;;;;;4696035;30;20050;-81
2022/06/02 20:05:55;;;;;;;3.17;2.78;;;17.00;99.90;;;;;;4695767;30;20057;-82
2022/06/02 20:08:45;;;;;;;3.47;3.17;;;16.90;99.90;;;;;;4696034;30;20057;-82
2022/06/02 20:11:41;;;;;;;2.90;2.60;;;16.80;99.90;;;;;;4693014;30;20399;-82